Time;durP1;ratioP1;P1;durP2;ratioP2;P2;SDS_P1;SDS_P2;PMS_P1;PMS_P2;Temp;Humidity;BMP_temperature;BMP_pressure;BME280_temperature;BME280_humidity;BME280_pressure;Samples;Min_cycle;Max_cycle;Signal;HPM_P1;HPM_P2
2022/09/14 00:01:15;;;;;;;5.03;1.10;;;;;;;12.38;48.66;101457.19;4988533;28;20057;-64
2022/09/14 00:04:03;;;;;;;2.15;0.73;;;;;;;12.49;43.19;101471.09;4991137;28;20077;-65
2022/09/14 00:06:51;;;;;;;2.00;0.63;;;;;;;12.44;43.36;101470.25;5004042;28;20058;-65
2022/09/14 00:09:38;;;;;;;2.47;0.90;;;;;;;12.17;42.16;101438.94;5004032;28;20049;-63
2022/09/14 00:12:33;;;;;;;1.08;0.70;;;;;;;12.23;45.12;101420.53;5003799;28;20094;-65
2022/09/14 00:15:19;;;;;;;2.65;0.70;;;;;;;12.48;39.65;101464.13;5004000;28;20117;-64
2022/09/14 00:18:01;;;;;;;0.90;0.50;;;;;;;12.50;40.24;101483.34;5003228;28;20054;-62
2022/09/14 00:20:36;;;;;;;1.70;0.50;;;;;;;12.42;41.18;101494.72;4989240;28;20062;-66
2022/09/14 00:23:18;;;;;;;1.60;0.52;;;;;;;12.30;39.64;101477.28;5014485;28;20071;-65
2022/09/14 00:26:06;;;;;;;2.90;0.50;;;;;;;12.27;39.66;101495.66;5017073;28;20329;-67
2022/09/14 00:29:04;;;;;;;2.55;0.60;;;;;;;12.43;39.61;101486.88;5019188;28;20095;-63
2022/09/14 00:32:11;;;;;;;1.10;0.75;;;;;;;12.39;38.00;101487.75;5028575;28;20056;-65
2022/09/14 00:34:57;;;;;;;1.05;0.80;;;;;;;12.54;37.98;101488.56;5061746;28;20052;-63
2022/09/14 00:37:31;;;;;;;1.67;0.50;;;;;;;12.63;38.68;101483.25;5044699;28;20056;-65
2022/09/14 00:40:13;;;;;;;1.02;0.47;;;;;;;12.75;38.48;101477.94;5014706;28;20120;-67
2022/09/14 00:43:01;;;;;;;1.95;0.68;;;;;;;12.88;38.30;101487.50;5063943;28;20080;-65
2022/09/14 00:45:45;;;;;;;0.98;0.70;;;;;;;12.95;39.51;101470.84;5063999;28;20075;-66
2022/09/14 00:48:25;;;;;;;0.50;0.45;;;;;;;13.01;38.85;101461.19;5064058;28;20102;-64
2022/09/14 00:51:04;;;;;;;1.70;0.70;;;;;;;13.19;38.39;101468.91;5063318;28;20494;-67
2022/09/14 00:53:54;;;;;;;0.60;0.57;;;;;;;13.21;38.21;101447.91;5064065;28;20056;-64
2022/09/14 00:56:34;;;;;;;3.50;0.60;;;;;;;13.21;37.24;101447.91;5062443;28;20096;-66
2022/09/14 00:59:20;;;;;;;0.40;0.40;;;;;;;13.16;37.33;101442.69;5083799;28;20057;-67
2022/09/14 01:02:03;;;;;;;1.73;0.50;;;;;;;13.26;37.47;101454.84;5081619;28;20052;-65
2022/09/14 01:05:04;;;;;;;1.63;0.60;;;;;;;13.38;39.17;101448.66;5083811;28;20052;-63
2022/09/14 01:08:14;;;;;;;2.75;0.40;;;;;;;13.55;38.47;101448.47;5081657;28;20044;-63
2022/09/14 01:11:07;;;;;;;0.70;0.45;;;;;;;13.42;37.13;101434.59;5083486;28;20082;-67
2022/09/14 01:13:58;;;;;;;3.30;1.13;;;;;;;13.32;34.60;101448.69;5083974;28;20064;-65
2022/09/14 01:16:50;;;;;;;1.27;0.70;;;;;;;13.47;35.38;101437.19;5083044;28;20089;-64
2022/09/14 01:19:50;;;;;;;2.75;0.68;;;;;;;13.49;33.42;101419.69;5083771;28;20056;-65
2022/09/14 01:22:41;;;;;;;4.03;0.43;;;;;;;13.42;32.39;101416.22;5082948;28;20115;-65
2022/09/14 01:25:42;;;;;;;0.60;0.47;;;;;;;13.47;34.63;101410.94;5082944;28;20074;-67
2022/09/14 01:28:47;;;;;;;1.42;0.60;;;;;;;13.44;32.83;101388.22;5083784;28;20048;-66
2022/09/14 01:31:56;;;;;;;0.30;0.30;;;;;;;13.65;32.34;101405.47;5083514;28;20122;-66
2022/09/14 01:34:59;;;;;;;0.90;0.50;;;;;;;13.77;32.99;101393.97;5039768;28;20052;-65
2022/09/14 01:37:52;;;;;;;0.55;0.35;;;;;;;13.88;33.98;101386.84;5083972;28;20067;-69
2022/09/14 01:41:08;;;;;;;0.57;0.40;;;;;;;13.91;32.17;101378.06;5083511;28;20064;-63
2022/09/14 01:44:17;;;;;;;0.38;0.30;;;;;;;13.96;32.89;101384.13;5083838;28;20054;-65
2022/09/14 01:47:12;;;;;;;0.95;0.50;;;;;;;13.98;33.14;101366.59;5082388;28;20048;-65
2022/09/14 01:50:07;;;;;;;1.77;0.60;;;;;;;14.03;32.74;101370.03;5083096;28;20059;-67
2022/09/14 01:52:56;;;;;;;0.90;0.40;;;;;;;14.12;32.89;101356.75;5083332;28;20111;-65
2022/09/14 01:55:54;;;;;;;0.88;0.50;;;;;;;14.04;32.18;101355.97;5032449;28;20266;-65
2022/09/14 01:58:52;;;;;;;0.50;0.50;;;;;;;14.10;31.94;101355.88;5049481;28;20217;-68
2022/09/14 02:01:42;;;;;;;0.60;0.60;;;;;;;14.16;31.03;101345.31;5083487;28;20052;-65
2022/09/14 02:04:44;;;;;;;1.42;0.40;;;;;;;14.11;29.16;101352.38;5031989;28;20064;-66
2022/09/14 02:07:21;;;;;;;1.20;0.47;;;;;;;14.01;31.32;101324.50;5083395;28;20060;-68
2022/09/14 02:10:08;;;;;;;0.95;0.40;;;;;;;14.38;30.65;101337.13;5082017;28;20213;-67
2022/09/14 02:12:53;;;;;;;0.50;0.40;;;;;;;14.37;29.50;101338.00;5048122;28;20084;-66
2022/09/14 02:15:43;;;;;;;0.47;0.40;;;;;;;14.45;31.48;101333.47;5048218;28;20057;-64
2022/09/14 02:18:49;;;;;;;0.50;0.40;;;;;;;14.51;29.87;101336.03;5083217;28;20094;-66
2022/09/14 02:21:36;;;;;;;0.40;0.40;;;;;;;14.61;31.51;101319.25;5080797;28;20048;-64
2022/09/14 02:24:43;;;;;;;2.30;0.40;;;;;;;14.83;30.21;101313.63;5083068;28;20572;-64
2022/09/14 02:27:21;;;;;;;0.50;0.30;;;;;;;14.81;30.37;101286.47;5082934;28;20102;-66
2022/09/14 02:30:14;;;;;;;0.40;0.40;;;;;;;14.75;27.65;101278.69;5083054;28;20452;-64
2022/09/14 02:33:07;;;;;;;2.10;0.30;;;;;;;14.89;29.30;101300.34;5083250;28;20305;-66
2022/09/14 02:35:56;;;;;;;0.87;0.40;;;;;;;14.79;29.06;101304.06;5082914;28;20287;-63
2022/09/14 02:38:39;;;;;;;0.70;0.50;;;;;;;14.86;29.99;101305.69;5082896;28;20290;-64
2022/09/14 02:41:33;;;;;;;1.63;0.40;;;;;;;14.83;30.42;101300.47;5084655;28;20279;-67
2022/09/14 02:44:26;;;;;;;4.53;0.50;;;;;;;14.97;28.76;101302.84;5086686;28;20340;-65
2022/09/14 02:47:49;;;;;;;0.30;0.30;;;;;;;14.96;27.97;101306.41;5086049;28;20863;-66
2022/09/14 02:50:35;;;;;;;1.30;0.38;;;;;;;14.98;31.02;101294.94;5086897;28;20044;-63
2022/09/14 02:53:37;;;;;;;1.03;0.30;;;;;;;15.10;27.70;101305.25;5090301;28;20059;-68
2022/09/14 02:56:36;;;;;;;1.87;0.50;;;;;;;15.05;27.31;101307.09;5037031;28;20352;-69
2022/09/14 02:59:18;;;;;;;0.30;0.30;;;;;;;14.98;28.31;101289.69;5066145;28;20592;-68
2022/09/14 03:02:03;;;;;;;1.37;0.30;;;;;;;15.20;25.77;101289.25;5065087;28;20585;-65
2022/09/14 03:07:31;;;;;;;1.70;0.30;;;;;;;15.31;26.65;101295.19;5035288;28;20317;-68
2022/09/14 03:10:20;;;;;;;1.47;0.30;;;;;;;15.29;26.50;101273.28;5080501;28;20370;-69
2022/09/14 03:13:11;;;;;;;1.17;0.40;;;;;;;15.47;25.73;101293.97;5082756;28;20291;-64
2022/09/14 03:15:52;;;;;;;0.30;0.30;;;;;;;15.62;27.68;101289.31;5083423;28;20350;-65
2022/09/14 03:18:31;;;;;;;4.17;0.43;;;;;;;15.53;26.12;101288.59;5083040;28;20291;-67
2022/09/14 03:21:19;;;;;;;7.60;0.50;;;;;;;15.39;26.54;101269.56;5082483;28;20283;-66
2022/09/14 03:24:08;;;;;;;2.20;0.40;;;;;;;15.50;25.42;101288.69;5082534;28;20309;-65
2022/09/14 03:26:58;;;;;;;0.40;0.40;;;;;;;15.33;27.27;101253.91;5048921;28;20282;-67
2022/09/14 03:29:39;;;;;;;8.03;0.50;;;;;;;15.53;23.83;101270.16;5082400;28;20289;-66
2022/09/14 03:32:14;;;;;;;0.50;0.30;;;;;;;15.46;24.43;101265.91;5081540;28;20343;-65
2022/09/14 03:34:56;;;;;;;4.50;0.37;;;;;;;14.93;24.42;101170.47;5080281;28;20350;-66
2022/09/14 03:37:35;;;;;;;0.50;0.30;;;;;;;15.62;26.25;101260.31;5081684;28;20314;-66
2022/09/14 03:40:21;;;;;;;1.77;0.40;;;;;;;15.75;26.38;101261.84;5082316;28;20283;-69
2022/09/14 03:43:11;;;;;;;0.30;0.30;;;;;;;15.64;23.61;101248.84;5045233;28;20301;-64
2022/09/14 03:45:48;;;;;;;0.47;0.30;;;;;;;15.66;24.70;101248.84;5081823;28;20302;-65
2022/09/14 03:48:36;;;;;;;1.53;0.30;;;;;;;15.78;25.92;101261.78;5082958;28;20286;-64
2022/09/14 03:51:17;;;;;;;0.90;0.33;;;;;;;15.87;24.13;101239.59;5080335;28;20323;-69
2022/09/14 03:54:07;;;;;;;1.40;0.40;;;;;;;15.96;23.06;101255.22;5080982;28;20290;-65
2022/09/14 03:56:46;;;;;;;0.40;0.30;;;;;;;15.98;23.55;101248.16;5081864;28;20305;-66
2022/09/14 03:59:25;;;;;;;0.47;0.20;;;;;;;16.04;24.10;101262.94;5080976;28;20325;-66
2022/09/14 04:02:15;;;;;;;5.87;0.60;;;;;;;16.06;24.54;101253.25;5038097;28;20309;-64
2022/09/14 04:05:00;;;;;;;8.27;0.40;;;;;;;16.13;24.49;101245.16;5032766;28;20294;-64
2022/09/14 04:07:39;;;;;;;0.53;0.20;;;;;;;16.12;23.19;101239.91;5082041;28;20325;-63
2022/09/14 04:13:06;;;;;;;2.03;0.30;;;;;;;16.02;24.33;101212.03;5020577;28;20116;-64
2022/09/14 04:16:06;;;;;;;0.25;0.25;;;;;;;16.14;23.66;101238.09;4942893;29;20295;-64
2022/09/14 04:18:49;;;;;;;0.30;0.20;;;;;;;16.13;24.77;101224.06;4943085;29;20080;-64
2022/09/14 04:21:33;;;;;;;5.67;0.40;;;;;;;16.21;22.25;101226.50;4942165;29;20347;-66
2022/09/14 04:24:39;;;;;;;0.73;0.22;;;;;;;16.29;20.91;101227.19;4941913;29;20292;-66
2022/09/14 04:27:21;;;;;;;1.07;0.30;;;;;;;16.29;24.21;101231.59;4900594;29;20118;-67
2022/09/14 04:30:03;;;;;;;0.32;0.32;;;;;;;16.34;24.24;101224.44;4942595;29;20295;-66
2022/09/14 04:32:47;;;;;;;0.90;0.40;;;;;;;16.51;23.91;101231.91;4880186;29;20070;-68
2022/09/14 04:35:29;;;;;;;1.07;0.20;;;;;;;16.52;24.13;101220.44;4942635;29;20521;-65
2022/09/14 04:38:06;;;;;;;0.40;0.30;;;;;;;16.52;22.45;101223.09;4941530;29;20331;-63
2022/09/14 04:40:47;;;;;;;2.20;0.50;;;;;;;16.59;23.07;101219.38;4942533;29;20346;-64
2022/09/14 04:46:35;;;;;;;0.50;0.40;;;;;;;16.55;23.69;101207.22;4966637;28;20304;-68
2022/09/14 04:49:21;;;;;;;1.60;0.40;;;;;;;16.58;25.06;101201.84;5019674;28;20296;-63
2022/09/14 04:52:01;;;;;;;1.33;0.20;;;;;;;16.60;23.19;101200.03;5019433;28;20586;-66
2022/09/14 04:54:36;;;;;;;0.20;0.20;;;;;;;16.59;23.02;101193.88;4974766;28;20384;-64
2022/09/14 04:57:20;;;;;;;1.33;0.30;;;;;;;16.64;23.08;101174.41;5052683;28;20295;-63
2022/09/14 05:00:14;;;;;;;0.20;0.20;;;;;;;16.73;20.96;101175.03;5014272;28;20321;-65
2022/09/14 05:03:08;;;;;;;1.90;0.30;;;;;;;16.72;19.51;101162.72;5041293;28;20412;-65
2022/09/14 05:06:23;;;;;;;4.17;0.40;;;;;;;16.85;21.26;101168.59;5058543;28;20286;-65
2022/09/14 05:09:03;;;;;;;0.53;0.30;;;;;;;16.97;20.18;101172.63;5080989;28;20283;-65
2022/09/14 05:11:39;;;;;;;4.67;0.40;;;;;;;16.95;21.03;101163.91;5079915;28;20511;-63
2022/09/14 05:14:20;;;;;;;0.83;0.27;;;;;;;16.92;22.41;101153.44;5080972;28;20283;-66
2022/09/14 05:17:03;;;;;;;0.70;0.30;;;;;;;16.99;23.91;101160.25;5079918;28;20525;-66
2022/09/14 05:19:41;;;;;;;0.67;0.30;;;;;;;17.14;24.27;101159.81;5079693;28;20286;-66
2022/09/14 05:22:37;;;;;;;1.77;0.30;;;;;;;17.19;21.55;101151.75;5080043;28;20291;-64
2022/09/14 05:25:19;;;;;;;1.17;0.50;;;;;;;17.17;23.06;101138.63;5008808;28;20294;-67
2022/09/14 05:28:12;;;;;;;0.20;0.20;;;;;;;17.21;22.50;101129.69;5036816;28;20625;-63
2022/09/14 05:30:58;;;;;;;0.67;0.30;;;;;;;17.02;21.66;101112.66;5080783;28;20313;-64
2022/09/14 05:33:44;;;;;;;;;;;;;;;17.12;22.24;101124.66;5031956;28;20295;-63
2022/09/14 05:36:27;;;;;;;1.47;0.30;;;;;;;17.16;22.19;101110.47;5080332;28;19947;-65
2022/09/14 05:39:17;;;;;;;4.57;0.73;;;;;;;17.22;21.81;101110.31;5079933;28;20307;-65
2022/09/14 05:42:02;;;;;;;2.27;0.30;;;;;;;17.22;23.43;101105.03;5080430;28;20279;-63
2022/09/14 05:44:46;;;;;;;0.60;0.33;;;;;;;17.25;23.01;101098.78;5080522;28;20279;-63
2022/09/14 05:47:36;;;;;;;0.93;0.30;;;;;;;17.13;22.76;101081.53;5080184;28;20325;-66
2022/09/14 05:50:34;;;;;;;0.47;0.30;;;;;;;17.02;21.82;101075.69;5078094;28;20285;-66
2022/09/14 05:53:13;;;;;;;0.30;0.30;;;;;;;17.17;22.82;101106.03;5044613;28;20286;-64
2022/09/14 05:59:01;;;;;;;4.77;0.60;;;;;;;17.21;24.81;101103.28;5028989;28;20313;-68
2022/09/14 06:05:04;;;;;;;1.13;0.40;;;;;;;17.51;24.51;101127.00;5079923;28;20283;-66
2022/09/14 06:07:49;;;;;;;4.80;0.50;;;;;;;17.52;24.15;101123.44;5080125;28;20291;-65
2022/09/14 06:10:48;;;;;;;;;;;;;;;;;;;;;
2022/09/14 06:13:41;;;;;;;0.50;0.50;;;;;;;17.45;26.08;101084.94;5033259;28;20137;-64
2022/09/14 06:16:22;;;;;;;10.27;0.77;;;;;;;17.42;30.42;101053.31;5082190;28;20271;-64
2022/09/14 06:19:00;;;;;;;;;;;;;;;17.82;28.54;101094.31;5085084;28;20370;-65
2022/09/14 06:21:54;;;;;;;1.45;0.30;;;;;;;17.87;28.64;101101.22;5083776;28;19917;-64
2022/09/14 06:24:34;;;;;;;4.63;0.40;;;;;;;17.79;26.77;101094.41;5084644;28;20094;-65
2022/09/14 06:27:12;;;;;;;1.63;0.90;;;;;;;17.72;27.21;101098.16;5084540;28;20286;-63
2022/09/14 06:29:58;;;;;;;9.10;1.00;;;;;;;17.44;26.09;101068.19;5081833;28;20329;-67
2022/09/14 06:32:37;;;;;;;20.30;1.77;;;;;;;17.68;30.22;101100.91;5084312;28;20295;-68
2022/09/14 06:35:12;;;;;;;5.03;0.73;;;;;;;17.72;29.75;101092.88;5084312;28;20290;-64
2022/09/14 06:37:57;;;;;;;9.80;0.87;;;;;;;17.79;29.50;101091.75;5037093;28;20318;-65
2022/09/14 06:40:37;;;;;;;16.90;1.43;;;;;;;17.67;30.02;101093.91;5083777;28;20291;-65
2022/09/14 06:43:20;;;;;;;7.03;1.30;;;;;;;17.62;29.16;101087.91;5083983;28;20324;-68
2022/09/14 06:46:20;;;;;;;7.20;2.07;;;;;;;17.51;31.10;101079.44;5036171;28;20282;-66
2022/09/14 06:49:05;;;;;;;7.10;1.30;;;;;;;17.54;32.03;101071.41;5084144;28;20293;-66
2022/09/14 06:51:50;;;;;;;0.90;0.40;;;;;;;17.68;31.81;101087.69;5083923;28;20320;-68
2022/09/14 06:54:37;;;;;;;15.63;2.00;;;;;;;17.64;33.28;101072.84;5084041;28;20301;-64
2022/09/14 06:57:25;;;;;;;18.87;4.43;;;;;;;17.66;33.05;101089.53;5078878;28;20277;-65
2022/09/14 07:00:18;;;;;;;6.38;2.17;;;;;;;17.61;32.77;101085.31;5080651;28;20313;-67
2022/09/14 07:03:01;;;;;;;5.97;1.40;;;;;;;17.37;34.06;101049.97;5083926;28;20044;-66
2022/09/14 07:05:58;;;;;;;;;;;;;;;;;;;;;
2022/09/14 07:08:43;;;;;;;2.33;0.90;;;;;;;17.47;33.14;101080.44;5072572;28;20885;-64
2022/09/14 07:11:35;;;;;;;3.87;0.73;;;;;;;17.42;34.14;101070.06;5082708;28;20362;-66
2022/09/14 07:14:22;;;;;;;4.63;0.67;;;;;;;17.44;34.62;101078.78;5004807;28;20438;-64
2022/09/14 07:20:07;;;;;;;6.03;0.73;;;;;;;17.37;34.92;101082.53;5055521;28;20321;-63
2022/09/14 07:22:46;;;;;;;1.23;0.40;;;;;;;17.37;35.63;101076.38;5083522;28;20362;-70
2022/09/14 07:25:28;;;;;;;3.83;0.70;;;;;;;17.29;36.13;101075.75;5083153;28;20275;-66
2022/09/14 07:28:06;;;;;;;2.90;0.77;;;;;;;17.27;37.34;101080.22;5083052;28;20279;-66
2022/09/14 07:30:56;;;;;;;7.90;1.17;;;;;;;17.14;37.52;101082.38;5083262;28;20293;-67
2022/09/14 07:33:31;;;;;;;9.00;1.33;;;;;;;17.00;37.76;101077.53;5082347;28;20290;-63
2022/09/14 07:36:13;;;;;;;12.32;1.15;;;;;;;16.99;39.44;101075.78;5081997;28;20298;-68
2022/09/14 07:38:50;;;;;;;8.87;1.03;;;;;;;16.94;39.74;101077.69;5079437;28;20048;-65
2022/09/14 07:41:29;;;;;;;3.13;0.60;;;;;;;16.90;39.49;101081.31;5065127;28;20325;-63
2022/09/14 07:44:16;;;;;;;5.65;0.90;;;;;;;16.80;39.48;101080.75;5050789;28;20502;-66
2022/09/14 07:46:54;;;;;;;10.13;1.35;;;;;;;16.24;41.05;100994.38;5031315;28;20044;-64
2022/09/14 07:49:34;;;;;;;3.63;0.60;;;;;;;16.65;41.36;101066.19;5058144;28;20059;-63
2022/09/14 07:52:24;;;;;;;1.63;0.67;;;;;;;16.63;41.85;101057.47;5083014;28;20300;-66
2022/09/14 07:55:12;;;;;;;10.13;0.80;;;;;;;16.56;42.93;101064.66;5082566;28;20359;-62
2022/09/14 07:57:47;;;;;;;5.05;0.82;;;;;;;16.42;42.25;101058.06;5082933;28;20286;-65
2022/09/14 08:00:30;;;;;;;38.53;2.60;;;;;;;16.28;43.50;101055.81;5081974;28;20090;-63
2022/09/14 08:03:20;;;;;;;18.27;1.30;;;;;;;16.18;44.69;101055.19;5049483;28;20295;-66
2022/09/14 08:06:04;;;;;;;6.93;1.37;;;;;;;16.13;44.81;101062.38;5082338;28;20358;-67
2022/09/14 08:08:55;;;;;;;42.17;2.50;;;;;;;16.03;45.55;101060.88;5081726;28;20297;-68
2022/09/14 08:11:47;;;;;;;10.67;1.70;;;;;;;15.95;47.16;101048.75;5081082;28;20045;-66
2022/09/14 08:14:24;;;;;;;14.50;3.20;;;;;;;15.86;47.25;101046.34;5081378;28;20302;-63
2022/09/14 08:17:06;;;;;;;70.10;5.73;;;;;;;15.70;47.88;101037.09;5036528;28;20052;-66
2022/09/14 08:19:54;;;;;;;61.93;5.63;;;;;;;15.53;49.74;101048.03;5082396;28;20358;-63
2022/09/14 08:22:30;;;;;;;45.47;3.70;;;;;;;15.33;52.60;101043.25;5081331;28;20294;-65
2022/09/14 08:25:22;;;;;;;18.27;2.05;;;;;;;15.09;54.58;101045.53;5082067;28;20294;-62
2022/09/14 08:27:58;;;;;;;8.30;2.33;;;;;;;14.87;54.58;101042.50;5006343;28;20049;-67
2022/09/14 08:33:46;;;;;;;10.00;1.85;;;;;;;14.38;50.16;101055.78;5081452;28;20336;-60
2022/09/14 08:36:50;;;;;;;7.47;1.23;;;;;;;14.21;48.75;101054.34;5081638;28;20108;-64
2022/09/14 08:39:28;;;;;;;25.83;2.23;;;;;;;14.09;49.51;101059.81;5080950;28;20306;-64
2022/09/14 08:42:30;;;;;;;7.33;1.40;;;;;;;13.94;49.74;101070.59;5080847;28;20624;-63
2022/09/14 08:45:21;;;;;;;8.27;1.30;;;;;;;13.79;49.95;101071.72;5081780;28;20274;-63
2022/09/14 08:48:19;;;;;;;21.73;1.87;;;;;;;13.65;50.70;101074.56;5081558;28;20287;-64
2022/09/14 08:53:56;;;;;;;11.77;1.40;;;;;;;13.38;51.58;101070.66;5079542;28;20071;-65
2022/09/14 08:56:49;;;;;;;17.83;2.55;;;;;;;13.20;52.71;101066.47;5080214;28;20279;-63
2022/09/14 08:59:42;;;;;;;20.77;2.58;;;;;;;13.03;53.66;101068.47;5030809;28;20124;-66
2022/09/14 09:03:01;;;;;;;21.77;2.30;;;;;;;12.74;54.69;101067.09;5070893;28;20052;-66
2022/09/14 09:06:09;;;;;;;14.13;2.20;;;;;;;12.61;55.26;101083.88;5075824;28;20127;-66
2022/09/14 09:08:55;;;;;;;;;;;;;;;12.43;55.71;101083.19;5072644;28;20049;-65
2022/09/14 09:14:53;;;;;;;22.52;2.10;;;;;;;11.58;56.44;100960.06;5066878;28;20065;-65
2022/09/14 09:17:49;;;;;;;23.80;2.28;;;;;;;12.15;56.32;101066.00;5060183;28;20045;-65
2022/09/14 09:20:34;;;;;;;39.88;2.95;;;;;;;12.11;55.68;101069.56;5017925;28;20072;-64
2022/09/14 09:23:26;;;;;;;6.70;1.48;;;;;;;12.05;54.55;101066.09;5017667;28;20057;-64
2022/09/14 09:26:18;;;;;;;40.70;3.15;;;;;;;11.85;53.74;101041.81;5018202;28;20318;-64
2022/09/14 09:29:30;;;;;;;16.73;1.48;;;;;;;12.01;53.29;101059.16;4995180;28;20096;-64
2022/09/14 09:32:19;;;;;;;9.20;0.80;;;;;;;11.98;51.61;101061.81;4972637;28;20054;-64
2022/09/14 09:35:00;;;;;;;1.05;0.70;;;;;;;11.97;50.67;101056.59;4999698;28;20058;-64
2022/09/14 09:37:58;;;;;;;3.40;0.70;;;;;;;11.89;50.02;101064.53;5015941;28;20061;-65
2022/09/14 09:40:45;;;;;;;5.60;1.20;;;;;;;11.88;50.18;101070.63;4999577;28;20152;-66
2022/09/14 09:43:27;;;;;;;4.07;1.30;;;;;;;11.84;50.06;101063.66;4999470;28;20097;-64
2022/09/14 09:46:17;;;;;;;8.55;1.17;;;;;;;11.79;49.87;101075.94;5017902;28;20046;-66
2022/09/14 09:48:56;;;;;;;3.15;0.93;;;;;;;11.74;50.19;101075.97;5017864;28;20124;-63
2022/09/14 09:51:42;;;;;;;2.75;0.60;;;;;;;11.65;50.15;101076.88;5031977;28;20135;-63
2022/09/14 09:54:41;;;;;;;19.77;1.80;;;;;;;11.56;50.64;101066.50;5077451;28;20059;-64
2022/09/14 10:00:38;;;;;;;;;;;;;;;11.33;52.57;101076.25;5098211;28;20056;-66
2022/09/14 10:03:34;;;;;;;36.42;2.78;;;;;;;11.16;52.74;101061.53;5079711;28;20209;-63
2022/09/14 10:06:15;;;;;;;39.38;4.22;;;;;;;10.74;54.13;101019.06;5080564;28;20044;-64
2022/09/14 10:08:48;;;;;;;17.35;3.60;;;;;;;10.79;55.61;101060.88;5080667;28;20246;-65
2022/09/14 10:11:40;;;;;;;11.52;6.75;;;;;;;10.56;57.85;101058.34;5040900;28;20036;-65
2022/09/14 10:14:39;;;;;;;9.23;6.50;;;;;;;10.42;60.42;101044.47;5079609;28;20059;-64
2022/09/14 10:17:29;;;;;;;42.70;7.78;;;;;;;10.19;62.59;101041.88;5080790;28;20127;-62
2022/09/14 10:20:25;;;;;;;21.45;5.60;;;;;;;10.06;64.07;101043.63;5079690;28;20045;-66
2022/09/14 10:26:51;;;;;;;6.32;3.00;;;;;;;9.92;65.88;101039.31;5077892;28;20060;-64
2022/09/14 10:29:47;;;;;;;5.68;3.45;;;;;;;9.82;66.69;101032.34;5080532;28;20084;-64
2022/09/14 10:32:28;;;;;;;19.58;3.40;;;;;;;9.79;66.96;101041.94;5077339;28;20056;-65
2022/09/14 10:35:20;;;;;;;9.45;5.40;;;;;;;9.68;67.70;101037.59;5080254;28;20067;-64
2022/09/14 10:38:14;;;;;;;8.27;5.28;;;;;;;9.46;68.10;101034.13;5078602;28;20052;-65
2022/09/14 10:41:25;;;;;;;6.75;4.93;;;;;;;9.27;69.24;101037.56;5080053;28;20078;-64
2022/09/14 10:44:51;;;;;;;7.90;4.45;;;;;;;9.17;70.43;101030.59;5080401;28;20380;-65
2022/09/14 10:51:02;;;;;;;5.72;1.95;;;;;;;9.16;71.68;101008.00;4995873;28;20082;-67
2022/09/14 10:53:57;;;;;;;3.97;1.60;;;;;;;9.02;72.11;101002.78;4998241;28;20046;-66
2022/09/14 10:56:52;;;;;;;3.65;1.50;;;;;;;9.02;71.45;101015.81;5008634;28;20073;-65
2022/09/14 10:59:49;;;;;;;5.03;1.50;;;;;;;8.89;71.19;101014.91;5007606;28;20251;-65
2022/09/14 11:03:12;;;;;;;4.13;1.30;;;;;;;8.88;71.67;101027.94;5010178;28;20062;-65
2022/09/14 11:06:04;;;;;;;4.38;1.45;;;;;;;8.76;72.21;101018.31;4965111;28;20570;-64
2022/09/14 11:08:54;;;;;;;3.72;1.52;;;;;;;8.70;72.63;101013.09;5010431;28;20326;-64
2022/09/14 11:11:44;;;;;;;9.23;2.17;;;;;;;8.68;74.03;101010.47;5012498;28;20111;-66
2022/09/14 11:14:47;;;;;;;12.10;2.00;;;;;;;8.33;74.81;100972.13;5011199;28;20054;-64
2022/09/14 11:17:52;;;;;;;11.10;1.70;;;;;;;8.49;75.27;101025.19;4985897;28;20362;-65
2022/09/14 11:20:45;;;;;;;6.20;1.70;;;;;;;8.40;75.47;101017.31;4967617;28;20225;-64
2022/09/14 11:23:42;;;;;;;10.15;2.17;;;;;;;8.28;76.06;101038.06;5006518;28;20113;-63
2022/09/14 11:26:44;;;;;;;5.55;2.35;;;;;;;8.11;76.53;101018.03;5061835;28;20067;-64
2022/09/14 11:29:41;;;;;;;4.57;2.88;;;;;;;8.25;77.66;101025.03;5106220;28;20048;-63
2022/09/14 11:33:03;;;;;;;3.95;1.65;;;;;;;8.29;78.17;101024.19;5085607;28;20048;-63
2022/09/14 11:35:59;;;;;;;4.10;1.48;;;;;;;8.17;78.79;101011.97;5084925;28;20071;-63
2022/09/14 11:39:00;;;;;;;6.53;2.00;;;;;;;8.12;78.90;101014.56;5056490;28;20099;-63
2022/09/14 11:42:11;;;;;;;10.35;4.97;;;;;;;7.88;78.91;100993.56;5085159;28;20064;-65
2022/09/14 11:45:09;;;;;;;16.25;7.30;;;;;;;7.76;79.59;100973.53;5083240;28;20372;-62
2022/09/14 11:47:52;;;;;;;9.25;4.18;;;;;;;7.99;80.40;101000.59;5065378;28;20110;-62
2022/09/14 11:50:40;;;;;;;8.50;4.63;;;;;;;8.05;80.47;100991.94;5065462;28;20134;-63
2022/09/14 11:53:22;;;;;;;13.25;6.80;;;;;;;7.28;80.35;100877.00;5064061;28;20109;-62
2022/09/14 11:56:00;;;;;;;8.35;3.80;;;;;;;7.93;80.27;100981.47;5064709;28;20555;-64
2022/09/14 11:59:03;;;;;;;4.93;2.83;;;;;;;7.93;80.58;100986.66;5065029;28;20070;-63
2022/09/14 12:01:48;;;;;;;6.38;2.85;;;;;;;7.73;80.49;100942.31;5052420;28;20113;-64
2022/09/14 12:04:27;;;;;;;3.67;1.90;;;;;;;7.92;80.62;100966.72;5085334;28;20071;-63
2022/09/14 12:07:19;;;;;;;2.92;2.22;;;;;;;7.95;80.90;100974.53;5053393;28;20057;-61
2022/09/14 12:10:24;;;;;;;7.38;2.65;;;;;;;7.91;80.76;100977.97;5083701;28;20056;-64
2022/09/14 12:13:21;;;;;;;24.98;3.08;;;;;;;7.92;81.12;100974.53;5083588;28;20044;-63
2022/09/14 12:16:11;;;;;;;7.80;2.22;;;;;;;7.94;81.12;100978.03;5084718;28;20107;-63
2022/09/14 12:19:18;;;;;;;4.05;1.70;;;;;;;7.87;80.72;100984.03;5084894;28;20138;-63
2022/09/14 12:22:49;;;;;;;3.88;1.73;;;;;;;7.80;81.06;100987.47;5162712;27;20408;-62
2022/09/14 12:25:23;;;;;;;8.40;2.80;;;;;;;7.70;81.44;100979.59;5093203;28;20054;-60
2022/09/14 12:28:05;;;;;;;6.40;2.13;;;;;;;7.72;81.76;100966.59;5138976;28;20043;-61
2022/09/14 12:31:19;;;;;;;4.93;2.22;;;;;;;7.84;81.86;100976.19;5142509;28;20047;-60
2022/09/14 12:34:44;;;;;;;17.88;2.88;;;;;;;7.86;82.47;100974.47;5130609;28;20039;-63
2022/09/14 12:37:40;;;;;;;20.05;2.90;;;;;;;7.86;82.51;100958.88;5058988;28;20053;-61
2022/09/14 12:40:48;;;;;;;4.07;1.70;;;;;;;7.94;82.17;100962.41;5058151;28;20079;-63
2022/09/14 12:44:03;;;;;;;2.60;1.70;;;;;;;7.87;81.77;100965.84;5014497;28;20052;-61
2022/09/14 12:46:54;;;;;;;5.13;2.03;;;;;;;7.54;81.24;100905.81;5058853;28;20059;-62
2022/09/14 12:49:45;;;;;;;5.40;2.05;;;;;;;7.32;80.91;100889.19;5058960;28;20045;-62
2022/09/14 12:52:56;;;;;;;3.97;1.80;;;;;;;7.65;81.04;100957.88;5058376;28;20045;-61
2022/09/14 12:55:55;;;;;;;5.30;2.30;;;;;;;7.77;81.48;100955.34;5014641;28;20109;-67
2022/09/14 12:59:00;;;;;;;5.65;1.92;;;;;;;7.84;81.46;100956.28;5039890;28;20073;-64
2022/09/14 13:02:03;;;;;;;2.90;2.00;;;;;;;7.64;80.82;100950.94;5038379;28;20066;-63
2022/09/14 13:05:29;;;;;;;;;;;;;;;;;;;;;
2022/09/14 13:08:35;;;;;;;6.57;1.55;;;;;;;7.33;83.09;100942.91;5026484;28;20145;-61
2022/09/14 13:11:32;;;;;;;4.10;1.65;;;;;;;7.38;83.45;100936.88;5058230;28;20045;-60
2022/09/14 13:14:05;;;;;;;1.95;1.40;;;;;;;7.35;83.38;100930.78;5046820;28;20070;-64
2022/09/14 13:20:00;;;;;;;4.57;2.63;;;;;;;6.64;83.90;100881.66;5099287;28;20051;-62
2022/09/14 13:22:52;;;;;;;2.80;1.65;;;;;;;6.62;84.87;100899.84;5120683;28;20056;-64
2022/09/14 13:25:40;;;;;;;7.50;1.80;;;;;;;6.70;84.96;100912.91;5087429;28;20078;-59
2022/09/14 13:28:40;;;;;;;1.88;1.45;;;;;;;6.73;84.53;100922.47;5120630;28;20119;-58
2022/09/14 13:34:36;;;;;;;8.52;3.65;;;;;;;6.61;84.37;100915.41;5069400;28;20107;-62
2022/09/14 13:37:25;;;;;;;5.68;2.97;;;;;;;6.60;84.38;100911.09;5106948;28;20056;-61
2022/09/14 13:40:08;;;;;;;10.57;3.53;;;;;;;6.57;84.48;100911.94;5106585;28;20111;-61
2022/09/14 13:42:52;;;;;;;9.50;5.63;;;;;;;6.65;84.64;100914.59;5106865;28;20040;-62
2022/09/14 13:45:52;;;;;;;7.75;5.18;;;;;;;6.70;84.42;100918.97;5106871;28;20047;-62
2022/09/14 13:48:32;;;;;;;13.10;4.45;;;;;;;6.72;84.28;100924.19;5107167;28;20275;-61
2022/09/14 13:51:19;;;;;;;10.98;3.75;;;;;;;6.70;84.49;100910.31;5105114;28;20060;-61
2022/09/14 13:54:01;;;;;;;15.98;3.60;;;;;;;6.70;84.35;100915.50;5106405;28;20205;-61
2022/09/14 13:56:40;;;;;;;13.32;3.70;;;;;;;6.70;84.83;100907.72;5104476;28;20115;-62
2022/09/14 13:59:32;;;;;;;4.80;2.15;;;;;;;6.72;84.14;100906.00;5105765;28;20051;-64
2022/09/14 14:02:19;;;;;;;7.63;1.80;;;;;;;6.67;84.18;100913.75;5073577;28;20317;-63